Terminal Aerodrome Forecast
Issued by NWS St Louis, MO

Home | Current Version | Previous Version | Graphics & Text | Print | Product List | Glossary On
Versions: 1 2 3 4 5 6 7 8 9 10 11 12 13 14 15 16 17 18 19 20 21 22 23 24
000
FTUS43 KLSX 241456 AAA
TAFSTL
TAF AMD
KSTL 241456Z 2415/2518 31012G20KT P6SM FEW040
     FM250000 31005KT P6SM FEW250
     FM250800 24004KT P6SM FEW250
     FM251400 30007KT P6SM FEW250=

USA.gov is the U.S. government's official web portal to all federal, state and local government web resources and services.